Time;durP1;ratioP1;P1;durP2;ratioP2;P2;SDS_P1;SDS_P2;PMS_P1;PMS_P2;Temp;Humidity;BMP_temperature;BMP_pressure;BME280_temperature;BME280_humidity;BME280_pressure;Samples;Min_cycle;Max_cycle;Signal;HPM_P1;HPM_P2
2023/09/15 00:00:42;;;;;;;4.53;3.67;;;;;;;22.93;53.13;98260.47;5048275;28;20686;-57
2023/09/15 00:03:08;;;;;;;7.78;3.40;;;;;;;22.85;53.58;98253.47;5048238;28;20185;-57
2023/09/15 00:05:33;;;;;;;7.28;3.92;;;;;;;22.79;55.02;98253.41;5083519;28;20175;-57
2023/09/15 00:08:04;;;;;;;9.20;4.32;;;;;;;22.83;54.77;98257.28;5090884;28;20605;-57
2023/09/15 00:10:30;;;;;;;7.10;3.85;;;;;;;22.90;53.81;98252.94;5090791;28;20203;-55
2023/09/15 00:12:58;;;;;;;6.90;3.92;;;;;;;22.92;53.88;98254.38;5090617;28;20625;-57
2023/09/15 00:15:23;;;;;;;5.60;3.58;;;;;;;22.75;54.10;98223.94;5090453;28;20544;-56
2023/09/15 00:17:49;;;;;;;4.63;3.40;;;;;;;22.89;54.26;98256.56;5090800;28;20199;-57
2023/09/15 00:20:14;;;;;;;7.85;4.05;;;;;;;22.56;54.70;98221.84;5090765;28;20217;-57
2023/09/15 00:22:49;;;;;;;6.57;4.30;;;;;;;22.72;54.63;98239.31;5090611;28;20207;-57
2023/09/15 00:25:18;;;;;;;6.88;4.15;;;;;;;22.78;54.47;98255.22;5090830;28;20179;-57
2023/09/15 00:27:48;;;;;;;5.95;3.88;;;;;;;22.71;54.39;98258.75;5090715;28;20249;-57
2023/09/15 00:30:15;;;;;;;7.78;4.22;;;;;;;22.50;55.01;98248.97;5090817;28;20172;-56
2023/09/15 00:32:41;;;;;;;5.07;3.50;;;;;;;22.39;54.75;98248.59;5090845;28;20272;-56
2023/09/15 00:35:06;;;;;;;5.50;4.05;;;;;;;22.30;55.59;98231.22;5090962;28;20191;-56
2023/09/15 00:37:32;;;;;;;8.70;3.67;;;;;;;22.50;55.23;98264.00;5090760;28;20607;-57
2023/09/15 00:39:57;;;;;;;4.38;3.90;;;;;;;22.36;54.77;98225.22;5090640;28;20657;-56
2023/09/15 00:42:24;;;;;;;8.10;3.78;;;;;;;22.51;55.16;98252.44;5090729;28;20183;-56
2023/09/15 00:44:51;;;;;;;8.00;4.20;;;;;;;22.41;55.46;98233.41;5090964;28;20180;-57
2023/09/15 00:47:16;;;;;;;6.47;4.47;;;;;;;22.44;55.59;98238.34;5027784;28;20383;-56
2023/09/15 00:49:42;;;;;;;6.88;3.60;;;;;;;22.32;55.10;98235.31;5028255;28;20273;-56
2023/09/15 00:52:08;;;;;;;6.53;4.00;;;;;;;22.54;55.05;98265.25;5027955;28;20200;-56
2023/09/15 00:54:33;;;;;;;6.72;3.75;;;;;;;22.51;55.44;98263.00;5027886;28;20189;-56
2023/09/15 00:56:59;;;;;;;5.25;3.72;;;;;;;22.49;55.83;98265.78;5027928;28;20305;-57
2023/09/15 00:59:25;;;;;;;6.03;4.25;;;;;;;22.44;55.56;98262.09;5027935;28;20193;-56
2023/09/15 01:01:53;;;;;;;10.68;4.20;;;;;;;22.45;55.49;98267.19;5027886;28;20189;-56
2023/09/15 01:04:19;;;;;;;7.97;4.53;;;;;;;22.44;55.06;98264.72;5027881;28;20767;-57
2023/09/15 01:06:48;;;;;;;7.38;4.72;;;;;;;22.33;55.63;98246.69;5027828;28;20335;-57
2023/09/15 01:09:14;;;;;;;5.95;3.38;;;;;;;22.27;55.87;98256.13;5027896;28;20577;-56
2023/09/15 01:11:39;;;;;;;5.28;3.70;;;;;;;22.27;56.17;98276.41;5027141;28;20206;-56
2023/09/15 01:14:05;;;;;;;6.20;4.45;;;;;;;22.21;56.56;98267.41;5027694;28;20206;-56
2023/09/15 01:16:49;;;;;;;7.25;3.97;;;;;;;22.02;57.62;98267.94;5027563;28;20244;-56
2023/09/15 01:19:50;;;;;;;6.32;4.07;;;;;;;21.98;58.05;98281.66;5027701;28;20182;-56
2023/09/15 01:22:37;;;;;;;9.15;4.07;;;;;;;22.01;57.51;98284.75;5027605;28;20535;-57
2023/09/15 01:25:18;;;;;;;7.03;4.32;;;;;;;21.93;57.99;98269.03;5067870;28;20180;-56
2023/09/15 01:28:07;;;;;;;6.68;4.25;;;;;;;21.95;57.72;98277.56;5093812;28;20179;-56
2023/09/15 01:30:33;;;;;;;7.53;4.43;;;;;;;21.75;58.20;98249.28;5094029;28;20175;-56
2023/09/15 01:32:59;;;;;;;6.55;3.88;;;;;;;21.73;57.88;98246.81;5093681;28;20176;-56
2023/09/15 01:35:25;;;;;;;6.43;4.05;;;;;;;21.64;58.20;98236.50;5093647;28;20553;-56
2023/09/15 01:37:50;;;;;;;8.32;4.22;;;;;;;21.75;58.29;98251.91;5093181;28;20298;-56
2023/09/15 01:40:16;;;;;;;5.30;3.80;;;;;;;21.90;58.29;98276.44;5093278;28;20281;-56
2023/09/15 01:42:42;;;;;;;6.97;4.13;;;;;;;21.79;58.62;98282.19;5093514;28;20234;-56
2023/09/15 01:45:09;;;;;;;7.80;3.85;;;;;;;21.53;58.77;98248.28;5093417;28;20168;-56
2023/09/15 01:47:35;;;;;;;5.03;3.33;;;;;;;21.60;58.67;98258.91;5093452;28;20234;-56
2023/09/15 01:50:02;;;;;;;6.97;3.92;;;;;;;21.55;58.94;98264.72;5093796;28;20176;-57
2023/09/15 01:52:28;;;;;;;9.48;3.90;;;;;;;21.47;58.93;98253.44;5093501;28;20210;-57
2023/09/15 01:54:54;;;;;;;6.75;4.10;;;;;;;21.50;58.94;98267.06;5093156;28;20574;-57
2023/09/15 01:57:22;;;;;;;7.97;4.63;;;;;;;21.42;59.08;98261.88;5093259;28;20211;-57
2023/09/15 01:59:47;;;;;;;5.10;3.75;;;;;;;21.68;58.96;98296.56;5093247;28;20176;-57
2023/09/15 02:02:12;;;;;;;7.13;4.07;;;;;;;21.46;59.25;98267.59;5093497;28;20175;-56
2023/09/15 02:04:38;;;;;;;4.50;3.72;;;;;;;21.49;59.32;98277.75;5093117;28;20222;-56
2023/09/15 02:07:04;;;;;;;14.07;4.70;;;;;;;21.59;59.50;98291.50;5093074;28;20191;-56
2023/09/15 02:09:29;;;;;;;6.82;3.78;;;;;;;21.60;59.30;98287.88;5093091;28;20197;-57
2023/09/15 02:11:54;;;;;;;8.35;4.10;;;;;;;21.49;59.81;98294.38;5093017;28;20188;-56
2023/09/15 02:14:20;;;;;;;7.38;4.07;;;;;;;21.49;59.92;98306.72;5092729;28;20175;-56
2023/09/15 02:16:45;;;;;;;5.78;4.03;;;;;;;21.36;60.15;98286.25;5092890;28;20214;-56
2023/09/15 02:19:10;;;;;;;7.43;4.60;;;;;;;21.44;59.70;98294.09;5092901;28;20168;-57
2023/09/15 02:21:36;;;;;;;5.55;4.15;;;;;;;21.44;59.80;98293.28;5092857;28;20270;-57
2023/09/15 02:24:02;;;;;;;4.18;3.78;;;;;;;21.57;59.61;98309.31;5092833;28;20179;-57
2023/09/15 02:26:28;;;;;;;6.47;4.10;;;;;;;21.64;59.55;98318.16;5092700;28;20202;-55
2023/09/15 02:28:53;;;;;;;7.18;4.70;;;;;;;21.52;60.03;98309.00;5092634;28;20237;-56
2023/09/15 02:31:19;;;;;;;7.53;4.35;;;;;;;21.56;59.96;98312.94;5092303;28;20675;-56
2023/09/15 02:33:45;;;;;;;6.30;3.95;;;;;;;21.45;60.76;98316.00;5092185;28;20172;-56
2023/09/15 02:36:10;;;;;;;4.82;3.92;;;;;;;21.24;60.89;98281.56;5092267;28;20294;-56
2023/09/15 02:38:36;;;;;;;6.07;4.00;;;;;;;21.29;61.07;98301.13;5092432;28;20218;-56
2023/09/15 02:41:01;;;;;;;6.50;4.18;;;;;;;21.35;61.48;98318.84;5092374;28;20179;-56
2023/09/15 02:43:27;;;;;;;7.97;4.10;;;;;;;21.03;61.62;98279.56;5092432;28;20252;-56
2023/09/15 02:45:52;;;;;;;5.35;3.80;;;;;;;21.12;61.81;98302.22;5092341;28;20554;-56
2023/09/15 02:48:17;;;;;;;7.40;4.15;;;;;;;21.00;62.15;98284.34;5092263;28;20168;-56
2023/09/15 02:50:43;;;;;;;8.65;4.32;;;;;;;21.16;62.06;98315.84;5091925;28;20206;-56
2023/09/15 02:53:10;;;;;;;6.88;4.40;;;;;;;21.00;62.92;98313.28;5092405;28;20172;-56
2023/09/15 02:55:39;;;;;;;9.68;4.70;;;;;;;20.88;63.05;98298.84;5092102;28;20287;-56
2023/09/15 02:58:05;;;;;;;5.82;3.70;;;;;;;20.86;63.15;98287.69;5091857;28;20199;-56
2023/09/15 03:00:30;;;;;;;7.47;4.00;;;;;;;21.02;63.09;98321.81;5092006;28;20180;-56
2023/09/15 03:02:56;;;;;;;6.03;4.38;;;;;;;21.06;63.02;98325.75;5092031;28;20225;-57
2023/09/15 03:05:22;;;;;;;6.95;3.90;;;;;;;20.83;63.25;98288.03;5091974;28;20187;-56
2023/09/15 03:07:47;;;;;;;8.70;4.35;;;;;;;20.88;63.66;98317.25;5092267;28;20180;-56
2023/09/15 03:10:15;;;;;;;8.13;4.20;;;;;;;20.70;63.75;98296.44;5092164;28;20210;-56
2023/09/15 03:12:41;;;;;;;7.80;4.38;;;;;;;20.70;64.00;98285.13;5092056;28;20244;-57
2023/09/15 03:15:08;;;;;;;7.03;4.55;;;;;;;20.75;64.36;98317.00;5092017;28;20215;-57
2023/09/15 03:17:35;;;;;;;11.05;4.47;;;;;;;20.66;64.18;98291.72;5091662;28;20272;-57
2023/09/15 03:20:05;;;;;;;8.65;4.20;;;;;;;20.74;64.50;98307.47;5091744;28;20172;-57
2023/09/15 03:22:30;;;;;;;8.85;4.40;;;;;;;20.78;64.58;98319.28;5091636;28;20649;-57
2023/09/15 03:24:56;;;;;;;7.93;4.65;;;;;;;20.61;64.08;98286.13;5091293;28;20180;-57
2023/09/15 03:27:21;;;;;;;5.85;4.10;;;;;;;20.69;64.00;98291.38;5091292;28;20215;-57
2023/09/15 03:29:46;;;;;;;6.32;4.43;;;;;;;20.82;63.77;98317.94;5091486;28;20176;-57
2023/09/15 03:32:12;;;;;;;5.93;4.40;;;;;;;20.84;63.74;98326.47;5091226;28;20172;-56
2023/09/15 03:34:38;;;;;;;5.72;4.60;;;;;;;20.85;63.77;98328.94;5091538;28;20200;-56
2023/09/15 03:37:04;;;;;;;5.85;4.00;;;;;;;20.73;63.72;98317.16;5091307;28;20268;-56
2023/09/15 03:39:30;;;;;;;4.35;3.95;;;;;;;20.65;63.57;98311.94;5091469;28;20261;-56
2023/09/15 03:41:55;;;;;;;6.28;4.25;;;;;;;20.63;63.66;98319.16;5091362;28;20210;-56
2023/09/15 03:44:22;;;;;;;5.45;4.45;;;;;;;20.64;64.04;98314.75;5091618;28;20168;-56
2023/09/15 03:46:47;;;;;;;6.38;4.60;;;;;;;20.71;64.29;98328.84;5091232;28;20609;-56
2023/09/15 03:49:13;;;;;;;8.75;4.55;;;;;;;20.61;65.22;98342.19;5090662;28;20254;-56
2023/09/15 03:51:38;;;;;;;6.13;3.75;;;;;;;20.49;64.82;98322.50;5091177;28;20650;-56
2023/09/15 03:54:04;;;;;;;8.63;4.40;;;;;;;20.74;64.83;98363.50;5091440;28;20176;-56
2023/09/15 03:56:30;;;;;;;9.20;4.65;;;;;;;20.40;64.98;98325.34;5091116;28;20207;-56
2023/09/15 03:58:55;;;;;;;9.18;4.45;;;;;;;20.68;65.02;98373.91;5091088;28;20175;-56
2023/09/15 04:01:23;;;;;;;6.30;4.30;;;;;;;20.65;65.00;98374.22;5091140;28;20179;-56
2023/09/15 04:03:49;;;;;;;7.82;4.15;;;;;;;20.68;65.16;98377.34;5091038;28;20222;-56
2023/09/15 04:06:16;;;;;;;10.48;4.70;;;;;;;20.53;64.95;98338.75;5090995;28;20188;-57
2023/09/15 04:08:41;;;;;;;7.30;4.32;;;;;;;20.68;65.28;98369.44;5090833;28;20178;-56
2023/09/15 04:11:07;;;;;;;5.70;4.32;;;;;;;20.72;65.10;98375.19;5090921;28;20183;-56
2023/09/15 04:13:32;;;;;;;6.13;4.50;;;;;;;20.51;65.04;98351.28;5090858;28;20263;-56
2023/09/15 04:15:59;;;;;;;7.32;3.85;;;;;;;20.52;65.32;98345.00;5090550;28;20172;-56
2023/09/15 04:18:25;;;;;;;5.60;4.20;;;;;;;20.61;65.71;98384.25;5090774;28;20176;-56
2023/09/15 04:20:50;;;;;;;7.63;4.50;;;;;;;20.37;65.54;98338.78;5090879;28;20209;-56
2023/09/15 04:23:16;;;;;;;15.70;5.60;;;;;;;20.42;65.25;98352.25;5090790;28;20182;-56
2023/09/15 04:25:44;;;;;;;6.72;4.55;;;;;;;20.36;65.73;98353.75;5090760;28;20168;-56
2023/09/15 04:28:10;;;;;;;4.55;3.90;;;;;;;20.39;65.72;98353.41;5090722;28;20176;-57
2023/09/15 04:30:35;;;;;;;6.95;4.38;;;;;;;20.49;65.63;98384.78;5090821;28;20673;-56
2023/09/15 04:33:00;;;;;;;6.22;4.50;;;;;;;20.45;66.09;98380.84;5090653;28;20186;-56
2023/09/15 04:35:27;;;;;;;7.05;4.80;;;;;;;20.31;66.30;98371.00;5090602;28;20725;-56
2023/09/15 04:37:53;;;;;;;10.07;4.75;;;;;;;20.47;66.71;98400.72;5090480;28;20253;-56
2023/09/15 04:40:19;;;;;;;9.02;4.40;;;;;;;20.31;67.15;98386.78;5090844;28;20180;-56
2023/09/15 04:42:45;;;;;;;5.00;4.50;;;;;;;20.20;67.73;98390.56;5090621;28;20187;-55
2023/09/15 04:45:11;;;;;;;6.93;4.40;;;;;;;20.08;68.36;98385.81;5090780;28;20171;-56
2023/09/15 04:47:37;;;;;;;8.63;4.50;;;;;;;20.21;68.51;98412.41;5090840;28;20175;-56
2023/09/15 04:50:03;;;;;;;6.60;4.28;;;;;;;20.13;68.47;98396.66;5090470;28;20221;-56
2023/09/15 04:52:29;;;;;;;8.15;4.68;;;;;;;19.99;68.36;98376.28;5090553;28;20268;-56
2023/09/15 04:54:55;;;;;;;6.43;4.63;;;;;;;20.40;67.59;98417.34;5090353;28;20579;-56
2023/09/15 04:57:21;;;;;;;7.78;4.50;;;;;;;20.31;67.52;98400.75;5090434;28;20214;-56
2023/09/15 04:59:47;;;;;;;6.93;5.15;;;;;;;20.33;67.89;98419.78;5090133;28;20164;-55
2023/09/15 05:02:13;;;;;;;5.40;4.28;;;;;;;20.34;67.35;98405.66;5093683;28;20179;-56
2023/09/15 05:04:39;;;;;;;7.13;4.50;;;;;;;20.35;67.88;98403.88;5094581;28;20184;-57
2023/09/15 05:07:05;;;;;;;8.13;4.65;;;;;;;20.39;67.91;98397.28;5094230;28;20187;-56
2023/09/15 05:09:30;;;;;;;6.65;4.53;;;;;;;20.43;67.27;98393.31;5094123;28;20687;-56
2023/09/15 05:11:55;;;;;;;6.25;4.32;;;;;;;20.64;67.32;98410.19;5093825;28;20223;-56
2023/09/15 05:14:22;;;;;;;6.10;4.18;;;;;;;20.63;67.43;98424.34;5094048;28;20168;-56
2023/09/15 05:16:48;;;;;;;4.60;4.13;;;;;;;20.52;67.03;98405.47;5094236;28;20199;-57
2023/09/15 05:19:13;;;;;;;5.85;4.53;;;;;;;20.61;66.91;98422.88;5093932;28;20249;-56
2023/09/15 05:21:39;;;;;;;10.00;4.00;;;;;;;20.49;66.99;98390.03;5093918;28;20665;-57
2023/09/15 05:24:05;;;;;;;6.90;4.45;;;;;;;20.54;67.58;98408.75;5093986;28;20180;-56
2023/09/15 05:26:30;;;;;;;8.10;4.55;;;;;;;20.74;67.19;98421.38;5094121;28;20297;-56
2023/09/15 05:28:55;;;;;;;5.95;4.80;;;;;;;20.84;66.91;98429.06;5093929;28;20168;-56
2023/09/15 05:31:25;;;;;;;7.80;4.20;;;;;;;20.79;66.29;98402.44;5050965;28;20282;-56
2023/09/15 05:33:52;;;;;;;8.52;4.30;;;;;;;21.09;65.48;98428.84;5051133;28;20193;-56
2023/09/15 05:36:17;;;;;;;11.52;4.82;;;;;;;21.02;65.48;98414.75;5051036;28;20217;-56
2023/09/15 05:38:42;;;;;;;10.18;4.95;;;;;;;20.96;64.96;98401.44;5051025;28;20188;-56
2023/09/15 05:41:08;;;;;;;7.80;4.88;;;;;;;21.25;64.65;98427.97;5051058;28;20194;-56
2023/09/15 05:43:33;;;;;;;7.80;4.10;;;;;;;21.21;64.59;98421.41;5051092;28;20212;-56
2023/09/15 05:45:59;;;;;;;6.93;4.13;;;;;;;21.15;64.79;98427.38;5050970;28;20242;-56
2023/09/15 05:48:24;;;;;;;6.07;4.65;;;;;;;21.28;64.70;98428.44;5051014;28;20212;-56
2023/09/15 05:50:53;;;;;;;7.80;4.38;;;;;;;21.42;64.47;98442.69;5050954;28;20205;-56
2023/09/15 05:53:19;;;;;;;5.53;4.32;;;;;;;21.38;64.11;98431.69;5050895;28;20173;-57
2023/09/15 05:55:44;;;;;;;6.60;4.70;;;;;;;21.55;63.87;98448.22;5050749;28;20243;-57
2023/09/15 05:58:09;;;;;;;8.27;4.30;;;;;;;21.62;63.60;98443.91;5050675;28;20201;-57
2023/09/15 06:00:35;;;;;;;4.97;4.47;;;;;;;21.39;63.64;98411.47;5050693;28;20631;-56
2023/09/15 06:03:01;;;;;;;10.50;4.55;;;;;;;21.43;63.17;98410.94;5083815;28;20531;-56
2023/09/15 06:05:26;;;;;;;8.50;4.90;;;;;;;21.70;63.40;98436.00;5093374;28;20653;-56
2023/09/15 06:07:52;;;;;;;7.20;4.78;;;;;;;21.70;63.87;98430.72;5093571;28;20674;-56
2023/09/15 06:10:18;;;;;;;8.63;4.30;;;;;;;21.84;62.84;98454.50;5093532;28;20183;-56
2023/09/15 06:12:43;;;;;;;7.10;4.40;;;;;;;21.71;62.69;98412.13;5092491;28;20180;-56
2023/09/15 06:15:10;;;;;;;6.07;4.43;;;;;;;21.80;62.83;98433.97;5093072;28;20630;-56
2023/09/15 06:17:35;;;;;;;10.77;5.07;;;;;;;21.88;62.65;98439.16;5093041;28;20203;-56
2023/09/15 06:20:01;;;;;;;4.90;4.32;;;;;;;22.14;61.98;98448.34;5092920;28;20597;-56
2023/09/15 06:22:27;;;;;;;4.75;4.28;;;;;;;22.09;61.74;98407.72;5092848;28;20630;-57
2023/09/15 06:24:52;;;;;;;6.80;4.72;;;;;;;22.41;61.24;98428.53;5092665;28;20188;-56
2023/09/15 06:27:18;;;;;;;6.75;4.47;;;;;;;22.66;61.09;98451.09;5092895;28;20179;-57
2023/09/15 06:29:44;;;;;;;7.30;4.10;;;;;;;22.72;60.43;98450.38;5092847;28;20195;-57
2023/09/15 06:32:09;;;;;;;11.98;4.60;;;;;;;22.88;59.60;98450.19;5092802;28;20634;-56
2023/09/15 06:34:35;;;;;;;7.45;4.63;;;;;;;22.88;59.39;98444.91;5092803;28;20221;-57
2023/09/15 06:37:01;;;;;;;9.50;4.85;;;;;;;23.05;58.85;98451.66;5092647;28;20617;-56
2023/09/15 06:39:27;;;;;;;6.15;4.30;;;;;;;22.93;58.60;98413.53;5092629;28;20183;-57
2023/09/15 06:41:53;;;;;;;8.18;4.85;;;;;;;23.12;58.40;98452.56;5092702;28;20255;-57
2023/09/15 06:44:19;;;;;;;6.60;4.18;;;;;;;22.93;58.40;98421.44;5092471;28;20214;-55
2023/09/15 06:46:45;;;;;;;5.35;4.40;;;;;;;23.24;58.92;98464.34;5092365;28;20555;-56
2023/09/15 06:49:11;;;;;;;6.55;4.60;;;;;;;23.23;57.75;98465.34;5092728;28;20259;-56
2023/09/15 06:51:36;;;;;;;7.50;4.50;;;;;;;23.17;57.99;98429.09;5092427;28;20175;-56
2023/09/15 06:54:02;;;;;;;13.00;4.68;;;;;;;23.45;57.59;98453.84;5092370;28;20218;-55
2023/09/15 06:56:30;;;;;;;9.25;4.35;;;;;;;23.44;56.98;98431.09;5092326;28;20223;-56
2023/09/15 06:58:55;;;;;;;11.95;5.35;;;;;;;23.52;56.57;98446.81;5092181;28;20347;-55
2023/09/15 07:01:20;;;;;;;10.43;4.80;;;;;;;23.58;57.15;98427.56;5092239;28;20176;-56
2023/09/15 07:03:46;;;;;;;7.55;5.20;;;;;;;23.97;57.17;98475.63;5092164;28;20591;-56
2023/09/15 07:06:13;;;;;;;10.07;5.88;;;;;;;24.02;57.23;98466.94;5092170;28;20202;-56
2023/09/15 07:08:39;;;;;;;13.18;6.47;;;;;;;24.19;57.24;98465.69;5092058;28;20176;-56
2023/09/15 07:11:04;;;;;;;14.55;6.65;;;;;;;24.28;56.50;98456.63;5091928;28;20213;-56
2023/09/15 07:13:30;;;;;;;11.90;6.65;;;;;;;24.42;55.91;98460.19;5092094;28;20211;-56
2023/09/15 07:15:55;;;;;;;13.57;6.85;;;;;;;24.46;55.93;98445.56;5091727;28;20245;-56
2023/09/15 07:18:20;;;;;;;12.35;6.40;;;;;;;24.61;55.30;98455.09;5091881;28;20251;-56
2023/09/15 07:20:50;;;;;;;17.60;6.35;;;;;;;24.59;55.04;98438.59;5091496;28;20199;-56
2023/09/15 07:23:15;;;;;;;17.50;5.93;;;;;;;24.80;54.82;98454.44;5090986;28;20178;-56
2023/09/15 07:25:47;;;;;;;10.68;6.25;;;;;;;24.80;54.34;98443.03;5091501;28;20549;-56
2023/09/15 07:28:13;;;;;;;20.27;6.95;;;;;;;25.02;54.83;98463.13;5091750;28;20168;-56
2023/09/15 07:30:38;;;;;;;17.63;6.82;;;;;;;25.15;54.22;98469.31;5091704;28;20195;-56
2023/09/15 07:33:04;;;;;;;15.75;6.13;;;;;;;25.11;52.94;98441.59;5091984;28;20172;-56
2023/09/15 07:35:30;;;;;;;15.27;6.68;;;;;;;25.29;53.40;98449.84;5091634;28;20180;-56
2023/09/15 07:37:55;;;;;;;21.88;5.90;;;;;;;25.47;53.20;98468.69;5091462;28;20286;-56
2023/09/15 07:40:22;;;;;;;21.30;6.45;;;;;;;25.42;52.61;98449.91;5091549;28;20647;-56
2023/09/15 07:42:48;;;;;;;19.48;6.88;;;;;;;25.62;51.96;98466.72;5091466;28;20207;-56
2023/09/15 07:45:13;;;;;;;22.65;6.65;;;;;;;25.51;52.07;98435.50;5091383;28;20180;-56
2023/09/15 07:47:38;;;;;;;25.00;6.78;;;;;;;25.65;52.07;98439.81;5091107;28;20206;-56
2023/09/15 07:50:05;;;;;;;16.48;5.78;;;;;;;25.79;50.92;98460.06;5091225;28;20175;-56
2023/09/15 07:52:30;;;;;;;13.10;5.28;;;;;;;25.79;50.46;98452.09;5091220;28;20200;-56
2023/09/15 07:54:56;;;;;;;12.20;5.35;;;;;;;25.85;50.45;98450.47;5091207;28;20210;-56
2023/09/15 07:57:21;;;;;;;11.57;5.43;;;;;;;25.82;49.82;98446.38;5091191;28;20218;-56
2023/09/15 07:59:46;;;;;;;12.10;5.45;;;;;;;25.87;50.03;98448.44;5091245;28;20262;-56
2023/09/15 08:02:13;;;;;;;14.35;5.90;;;;;;;26.05;49.52;98473.41;5091181;28;20174;-56
2023/09/15 08:04:39;;;;;;;19.73;5.82;;;;;;;25.88;50.41;98437.63;5091118;28;20180;-56
2023/09/15 08:07:06;;;;;;;15.77;6.40;;;;;;;25.90;50.27;98448.88;5091134;28;20186;-57
2023/09/15 08:09:31;;;;;;;14.95;5.82;;;;;;;25.95;50.31;98446.44;5091054;28;20176;-56
2023/09/15 08:12:00;;;;;;;11.63;5.93;;;;;;;26.01;50.05;98456.25;5089953;28;20234;-56
2023/09/15 08:14:29;;;;;;;15.77;5.82;;;;;;;25.98;49.84;98439.91;5090586;28;20743;-55
2023/09/15 08:16:54;;;;;;;12.15;5.75;;;;;;;26.17;50.29;98449.75;5090920;28;20207;-56
2023/09/15 08:19:20;;;;;;;15.27;5.95;;;;;;;26.21;50.31;98432.41;5091208;28;20305;-55
2023/09/15 08:21:46;;;;;;;18.67;5.75;;;;;;;26.41;50.23;98457.13;5090937;28;20176;-56
2023/09/15 08:24:12;;;;;;;15.93;6.22;;;;;;;26.37;49.85;98440.78;5090951;28;20285;-56
2023/09/15 08:26:38;;;;;;;17.63;6.30;;;;;;;26.12;49.49;98445.03;5090890;28;20212;-56
2023/09/15 08:29:04;;;;;;;17.75;6.32;;;;;;;26.23;49.76;98449.75;5090801;28;20186;-56
2023/09/15 08:31:30;;;;;;;11.30;6.05;;;;;;;26.28;49.90;98435.88;5090890;28;20172;-56
2023/09/15 08:33:56;;;;;;;21.00;6.80;;;;;;;26.29;49.86;98416.31;5090834;28;20164;-56
2023/09/15 08:36:21;;;;;;;15.15;5.55;;;;;;;26.61;49.60;98445.53;5051839;28;20235;-56
2023/09/15 08:38:46;;;;;;;16.77;6.43;;;;;;;26.71;49.38;98443.25;5052535;28;20189;-56
2023/09/15 08:41:21;;;;;;;17.40;5.68;;;;;;;26.87;48.16;98445.50;5052163;28;20185;-55
2023/09/15 08:43:46;;;;;;;17.60;5.88;;;;;;;26.75;48.15;98409.97;5052254;28;20184;-55
2023/09/15 08:46:14;;;;;;;21.33;6.50;;;;;;;26.99;47.70;98425.22;5052047;28;20268;-56
2023/09/15 08:48:40;;;;;;;12.25;5.82;;;;;;;27.04;48.08;98420.13;5051990;28;20227;-56
2023/09/15 08:51:07;;;;;;;12.60;5.55;;;;;;;27.11;48.01;98433.38;5052036;28;20225;-56
2023/09/15 08:53:34;;;;;;;12.80;6.00;;;;;;;26.94;47.35;98390.50;5051942;28;20244;-56
2023/09/15 08:56:00;;;;;;;14.10;5.78;;;;;;;27.16;47.53;98426.44;5051906;28;20242;-56
2023/09/15 08:58:26;;;;;;;16.60;5.80;;;;;;;27.21;47.32;98429.28;5051846;28;20246;-56
2023/09/15 09:00:54;;;;;;;15.95;9.18;;;;;;;27.23;47.48;98418.47;5051619;28;20189;-56
2023/09/15 09:03:23;;;;;;;11.05;6.60;;;;;;;27.35;47.31;98422.09;5051714;28;20196;-56
2023/09/15 09:05:49;;;;;;;11.75;6.70;;;;;;;27.19;47.07;98388.00;5051663;28;20193;-56
2023/09/15 09:08:21;;;;;;;16.25;5.97;;;;;;;27.19;47.62;98394.16;5051676;28;20192;-56
2023/09/15 09:10:52;;;;;;;12.88;6.32;;;;;;;27.37;47.00;98420.88;5051471;28;20229;-57
2023/09/15 09:13:21;;;;;;;9.13;5.78;;;;;;;27.28;46.76;98403.50;5051756;28;20193;-57
2023/09/15 09:15:47;;;;;;;16.65;6.18;;;;;;;27.36;47.30;98415.75;5051488;28;20185;-56
2023/09/15 09:18:19;;;;;;;8.88;5.93;;;;;;;27.48;47.42;98427.34;5051446;28;20731;-56
2023/09/15 09:20:50;;;;;;;10.93;5.55;;;;;;;27.33;46.30;98400.22;5051446;28;20290;-56
2023/09/15 09:23:18;;;;;;;11.50;6.22;;;;;;;27.52;46.86;98429.38;5051530;28;20188;-56
2023/09/15 09:25:45;;;;;;;14.98;6.53;;;;;;;27.57;46.93;98426.09;5051358;28;20193;-56
2023/09/15 09:28:11;;;;;;;14.68;6.13;;;;;;;27.56;46.56;98409.31;5051425;28;20205;-56
2023/09/15 09:30:36;;;;;;;11.90;6.15;;;;;;;27.48;47.07;98393.63;5051434;28;20176;-56
2023/09/15 09:33:03;;;;;;;22.05;6.45;;;;;;;27.67;47.31;98407.81;5051339;28;20298;-56
2023/09/15 09:35:28;;;;;;;10.55;5.55;;;;;;;27.81;46.96;98401.44;5051235;28;20567;-56
2023/09/15 09:37:58;;;;;;;10.13;5.90;;;;;;;28.00;45.95;98404.00;5054311;28;20222;-56
2023/09/15 09:40:24;;;;;;;12.40;5.95;;;;;;;28.12;45.63;98412.91;5073613;28;20188;-56
2023/09/15 09:42:50;;;;;;;12.45;6.00;;;;;;;28.00;46.09;98390.69;5073586;28;20583;-56
2023/09/15 09:45:16;;;;;;;13.68;5.45;;;;;;;28.01;45.38;98394.97;5070811;28;20351;-56
2023/09/15 09:47:45;;;;;;;10.35;6.00;;;;;;;28.07;45.52;98383.47;5070099;28;20192;-57
2023/09/15 09:50:11;;;;;;;11.75;5.75;;;;;;;28.23;45.83;98406.06;5070936;28;20184;-57
2023/09/15 09:52:38;;;;;;;9.88;5.63;;;;;;;28.22;45.30;98391.94;5071022;28;20214;-57
2023/09/15 09:55:04;;;;;;;14.70;6.22;;;;;;;28.19;45.14;98363.09;5070910;28;20729;-57
2023/09/15 09:57:30;;;;;;;10.20;5.13;;;;;;;28.32;44.96;98357.66;5070749;28;20274;-57
2023/09/15 09:59:56;;;;;;;9.40;5.43;;;;;;;28.55;44.53;98375.69;5071064;28;20184;-57
2023/09/15 10:02:22;;;;;;;14.80;5.47;;;;;;;28.73;44.46;98389.88;5070806;28;20655;-57
2023/09/15 10:04:47;;;;;;;12.02;5.40;;;;;;;28.79;44.53;98377.53;5070792;28;20184;-57
2023/09/15 10:07:13;;;;;;;11.00;5.80;;;;;;;28.89;44.00;98373.31;5070947;28;20760;-56
2023/09/15 10:09:39;;;;;;;9.10;5.32;;;;;;;29.02;43.06;98378.53;5070509;28;20181;-56
2023/09/15 10:12:05;;;;;;;9.13;5.47;;;;;;;29.02;43.44;98370.53;5070366;28;20235;-57
2023/09/15 10:14:31;;;;;;;9.52;5.45;;;;;;;29.28;43.12;98372.06;5070645;28;20189;-57
2023/09/15 10:16:58;;;;;;;12.13;5.43;;;;;;;29.17;42.88;98333.66;5072163;28;20259;-57
2023/09/15 10:19:25;;;;;;;8.98;5.28;;;;;;;29.32;42.38;98328.72;5072841;28;20184;-57
2023/09/15 10:21:51;;;;;;;8.13;4.78;;;;;;;29.61;41.68;98370.63;5072954;28;20200;-57
2023/09/15 10:24:17;;;;;;;6.30;5.53;;;;;;;29.58;41.62;98360.41;5072857;28;20165;-57
2023/09/15 10:26:43;;;;;;;9.05;4.78;;;;;;;29.31;41.78;98339.59;5072851;28;20230;-57
2023/09/15 10:29:12;;;;;;;7.45;4.60;;;;;;;29.33;41.88;98330.34;5072732;28;20229;-57
2023/09/15 10:31:52;;;;;;;11.07;5.60;;;;;;;29.57;41.71;98358.75;5072684;28;20218;-57
2023/09/15 10:34:17;;;;;;;10.48;5.78;;;;;;;29.59;41.81;98356.69;5072765;28;20200;-57
2023/09/15 10:36:43;;;;;;;7.57;4.82;;;;;;;29.46;41.24;98330.19;5072598;28;20199;-57
2023/09/15 10:39:17;;;;;;;8.10;5.30;;;;;;;29.75;40.96;98355.25;5072515;28;20180;-57
2023/09/15 10:41:43;;;;;;;7.30;5.40;;;;;;;29.99;41.40;98355.06;5072525;28;20188;-57
2023/09/15 10:44:09;;;;;;;7.93;5.13;;;;;;;30.04;40.76;98349.03;5072495;28;20642;-56
2023/09/15 10:46:38;;;;;;;7.40;4.75;;;;;;;30.15;41.14;98335.72;5072381;28;20184;-56
2023/09/15 10:49:22;;;;;;;11.52;5.50;;;;;;;30.51;40.48;98356.91;5072369;28;20215;-56
2023/09/15 10:51:54;;;;;;;10.57;4.85;;;;;;;30.63;39.99;98362.22;5072371;28;20180;-56
2023/09/15 10:54:20;;;;;;;9.88;5.35;;;;;;;30.49;40.30;98323.44;5072186;28;20185;-57
2023/09/15 10:56:47;;;;;;;8.25;4.72;;;;;;;30.63;40.18;98351.53;5072079;28;20739;-57
2023/09/15 10:59:14;;;;;;;8.38;5.40;;;;;;;30.27;39.96;98331.25;5072075;28;20255;-57
2023/09/15 11:01:44;;;;;;;10.63;4.97;;;;;;;30.40;40.07;98355.03;5072048;28;20245;-57
2023/09/15 11:04:17;;;;;;;9.43;5.45;;;;;;;30.17;40.78;98352.34;5072101;28;20168;-57
2023/09/15 11:06:48;;;;;;;9.43;5.38;;;;;;;29.96;40.84;98323.50;5072016;28;20188;-57
2023/09/15 11:09:14;;;;;;;9.50;5.43;;;;;;;30.02;40.41;98343.13;5071580;28;20539;-57
2023/09/15 11:11:47;;;;;;;7.65;4.88;;;;;;;29.87;40.69;98324.88;5080784;28;20733;-57
2023/09/15 11:14:17;;;;;;;9.15;4.97;;;;;;;29.80;40.96;98350.84;5092093;28;20179;-57
2023/09/15 11:16:45;;;;;;;7.40;4.75;;;;;;;29.63;41.25;98328.53;5092051;28;20206;-57
2023/09/15 11:19:14;;;;;;;8.38;5.45;;;;;;;29.44;41.03;98318.13;5091808;28;20172;-56
2023/09/15 11:21:40;;;;;;;9.55;5.20;;;;;;;29.58;41.69;98335.59;5091921;28;20553;-56
2023/09/15 11:24:08;;;;;;;8.05;5.05;;;;;;;29.47;41.67;98326.47;5091885;28;20176;-56
2023/09/15 11:26:33;;;;;;;8.32;5.00;;;;;;;29.47;41.29;98306.97;5091862;28;20176;-56
2023/09/15 11:28:59;;;;;;;8.32;5.30;;;;;;;29.56;41.90;98327.81;5092030;28;20191;-56